sensor_id;sensor_type;location;lat;lon;timestamp;temperature;humidity
77100;SHT31;66602;48.922;2.414;2023-03-14T00:00:13;11.31;78.81
77100;SHT31;66602;48.922;2.414;2023-03-14T00:02:40;11.34;78.34
77100;SHT31;66602;48.922;2.414;2023-03-14T00:05:06;11.30;78.80
77100;SHT31;66602;48.922;2.414;2023-03-14T00:07:36;11.23;79.29
77100;SHT31;66602;48.922;2.414;2023-03-14T00:10:08;11.20;79.34
77100;SHT31;66602;48.922;2.414;2023-03-14T00:12:34;11.10;79.17
77100;SHT31;66602;48.922;2.414;2023-03-14T00:15:00;11.10;79.26
77100;SHT31;66602;48.922;2.414;2023-03-14T00:17:27;11.12;78.93
77100;SHT31;66602;48.922;2.414;2023-03-14T00:19:53;11.16;78.84
77100;SHT31;66602;48.922;2.414;2023-03-14T00:22:19;11.24;78.24
77100;SHT31;66602;48.922;2.414;2023-03-14T00:24:45;11.27;78.71
77100;SHT31;66602;48.922;2.414;2023-03-14T00:27:11;11.14;79.72
77100;SHT31;66602;48.922;2.414;2023-03-14T00:29:36;11.03;80.65
77100;SHT31;66602;48.922;2.414;2023-03-14T00:32:02;10.77;82.45
77100;SHT31;66602;48.922;2.414;2023-03-14T00:34:31;10.66;83.13
77100;SHT31;66602;48.922;2.414;2023-03-14T00:36:57;10.71;82.71
77100;SHT31;66602;48.922;2.414;2023-03-14T00:39:23;10.66;82.85
77100;SHT31;66602;48.922;2.414;2023-03-14T00:41:48;10.71;82.79
77100;SHT31;66602;48.922;2.414;2023-03-14T00:44:14;10.85;81.78
77100;SHT31;66602;48.922;2.414;2023-03-14T00:46:39;10.91;81.36
77100;SHT31;66602;48.922;2.414;2023-03-14T00:49:05;10.91;81.60
77100;SHT31;66602;48.922;2.414;2023-03-14T00:51:30;10.96;81.32
77100;SHT31;66602;48.922;2.414;2023-03-14T00:53:56;10.97;81.23
77100;SHT31;66602;48.922;2.414;2023-03-14T00:56:21;10.96;81.51
77100;SHT31;66602;48.922;2.414;2023-03-14T00:58:47;10.92;81.58
77100;SHT31;66602;48.922;2.414;2023-03-14T01:01:14;10.93;81.57
77100;SHT31;66602;48.922;2.414;2023-03-14T01:03:40;10.92;81.68
77100;SHT31;66602;48.922;2.414;2023-03-14T01:06:15;10.97;81.50
77100;SHT31;66602;48.922;2.414;2023-03-14T01:08:41;11.02;81.66
77100;SHT31;66602;48.922;2.414;2023-03-14T01:11:12;10.96;81.94
77100;SHT31;66602;48.922;2.414;2023-03-14T01:13:38;10.88;82.08
77100;SHT31;66602;48.922;2.414;2023-03-14T01:16:07;10.89;81.96
77100;SHT31;66602;48.922;2.414;2023-03-14T01:18:34;10.92;82.07
77100;SHT31;66602;48.922;2.414;2023-03-14T01:23:42;10.95;81.84
77100;SHT31;66602;48.922;2.414;2023-03-14T01:26:12;10.93;81.80
77100;SHT31;66602;48.922;2.414;2023-03-14T01:28:38;10.95;81.90
77100;SHT31;66602;48.922;2.414;2023-03-14T01:31:08;10.97;81.66
77100;SHT31;66602;48.922;2.414;2023-03-14T01:33:34;10.96;81.65
77100;SHT31;66602;48.922;2.414;2023-03-14T01:36:01;11.04;81.31
77100;SHT31;66602;48.922;2.414;2023-03-14T01:38:31;11.12;81.01
77100;SHT31;66602;48.922;2.414;2023-03-14T01:40:57;11.17;80.86
77100;SHT31;66602;48.922;2.414;2023-03-14T01:43:23;11.16;81.03
77100;SHT31;66602;48.922;2.414;2023-03-14T01:48:37;11.19;80.95
77100;SHT31;66602;48.922;2.414;2023-03-14T01:51:10;11.24;80.98
77100;SHT31;66602;48.922;2.414;2023-03-14T01:53:37;11.17;81.38
77100;SHT31;66602;48.922;2.414;2023-03-14T01:56:04;11.16;81.39
77100;SHT31;66602;48.922;2.414;2023-03-14T01:58:32;11.17;81.45
77100;SHT31;66602;48.922;2.414;2023-03-14T02:01:03;11.19;81.52
77100;SHT31;66602;48.922;2.414;2023-03-14T02:03:30;11.19;81.58
77100;SHT31;66602;48.922;2.414;2023-03-14T02:06:01;11.16;81.90
77100;SHT31;66602;48.922;2.414;2023-03-14T02:08:30;11.14;82.08
77100;SHT31;66602;48.922;2.414;2023-03-14T02:10:56;11.14;82.12
77100;SHT31;66602;48.922;2.414;2023-03-14T02:13:22;11.14;82.24
77100;SHT31;66602;48.922;2.414;2023-03-14T02:15:48;11.09;82.52
77100;SHT31;66602;48.922;2.414;2023-03-14T02:18:14;11.10;82.42
77100;SHT31;66602;48.922;2.414;2023-03-14T02:21:01;11.13;82.24
77100;SHT31;66602;48.922;2.414;2023-03-14T02:26:20;11.17;82.45
77100;SHT31;66602;48.922;2.414;2023-03-14T02:28:47;11.10;82.89
77100;SHT31;66602;48.922;2.414;2023-03-14T02:31:13;11.12;82.68
77100;SHT31;66602;48.922;2.414;2023-03-14T02:33:40;11.12;82.83
77100;SHT31;66602;48.922;2.414;2023-03-14T02:36:08;11.09;83.12
77100;SHT31;66602;48.922;2.414;2023-03-14T02:39:05;11.06;83.37
77100;SHT31;66602;48.922;2.414;2023-03-14T02:41:32;11.04;83.31
77100;SHT31;66602;48.922;2.414;2023-03-14T02:43:57;11.09;83.21
77100;SHT31;66602;48.922;2.414;2023-03-14T02:46:23;11.07;83.34
77100;SHT31;66602;48.922;2.414;2023-03-14T02:48:58;11.09;83.50
77100;SHT31;66602;48.922;2.414;2023-03-14T02:51:27;11.00;84.54
77100;SHT31;66602;48.922;2.414;2023-03-14T02:53:53;10.77;86.11
77100;SHT31;66602;48.922;2.414;2023-03-14T02:56:19;10.61;87.00
77100;SHT31;66602;48.922;2.414;2023-03-14T02:58:44;10.42;88.31
77100;SHT31;66602;48.922;2.414;2023-03-14T03:01:10;10.35;89.30
77100;SHT31;66602;48.922;2.414;2023-03-14T03:03:35;10.31;89.45
77100;SHT31;66602;48.922;2.414;2023-03-14T03:06:01;10.33;89.42
77100;SHT31;66602;48.922;2.414;2023-03-14T03:08:27;10.37;89.33
77100;SHT31;66602;48.922;2.414;2023-03-14T03:10:54;10.34;89.34
77100;SHT31;66602;48.922;2.414;2023-03-14T03:13:20;10.38;88.99
77100;SHT31;66602;48.922;2.414;2023-03-14T03:15:46;10.34;89.42
77100;SHT31;66602;48.922;2.414;2023-03-14T03:18:11;10.35;89.21
77100;SHT31;66602;48.922;2.414;2023-03-14T03:20:37;10.35;89.65
77100;SHT31;66602;48.922;2.414;2023-03-14T03:23:03;10.33;89.82
77100;SHT31;66602;48.922;2.414;2023-03-14T03:25:29;10.33;90.22
77100;SHT31;66602;48.922;2.414;2023-03-14T03:27:55;10.33;90.33
77100;SHT31;66602;48.922;2.414;2023-03-14T03:30:21;10.33;90.29
77100;SHT31;66602;48.922;2.414;2023-03-14T03:32:47;10.41;90.13
77100;SHT31;66602;48.922;2.414;2023-03-14T03:35:12;10.35;90.77
77100;SHT31;66602;48.922;2.414;2023-03-14T03:37:38;10.27;91.44
77100;SHT31;66602;48.922;2.414;2023-03-14T03:40:05;10.25;91.91
77100;SHT31;66602;48.922;2.414;2023-03-14T03:42:32;10.25;91.78
77100;SHT31;66602;48.922;2.414;2023-03-14T03:44:58;10.27;91.63
77100;SHT31;66602;48.922;2.414;2023-03-14T03:47:24;10.27;91.68
77100;SHT31;66602;48.922;2.414;2023-03-14T03:49:49;10.28;91.65
77100;SHT31;66602;48.922;2.414;2023-03-14T03:52:15;10.24;91.86
77100;SHT31;66602;48.922;2.414;2023-03-14T03:54:40;10.25;92.01
77100;SHT31;66602;48.922;2.414;2023-03-14T03:57:06;10.33;91.36
77100;SHT31;66602;48.922;2.414;2023-03-14T03:59:31;10.35;91.34
77100;SHT31;66602;48.922;2.414;2023-03-14T04:01:57;10.35;91.12
77100;SHT31;66602;48.922;2.414;2023-03-14T04:04:22;10.42;91.10
77100;SHT31;66602;48.922;2.414;2023-03-14T04:06:48;10.35;91.47
77100;SHT31;66602;48.922;2.414;2023-03-14T04:09:13;10.37;91.19
77100;SHT31;66602;48.922;2.414;2023-03-14T04:11:39;10.40;91.02
77100;SHT31;66602;48.922;2.414;2023-03-14T04:14:05;10.38;91.25
77100;SHT31;66602;48.922;2.414;2023-03-14T04:16:30;10.45;90.91
77100;SHT31;66602;48.922;2.414;2023-03-14T04:18:59;10.42;90.98
77100;SHT31;66602;48.922;2.414;2023-03-14T04:21:25;10.44;91.16
77100;SHT31;66602;48.922;2.414;2023-03-14T04:23:51;10.41;91.57
77100;SHT31;66602;48.922;2.414;2023-03-14T04:26:17;10.46;91.43
77100;SHT31;66602;48.922;2.414;2023-03-14T04:28:42;10.42;91.58
77100;SHT31;66602;48.922;2.414;2023-03-14T04:31:15;10.44;91.67
77100;SHT31;66602;48.922;2.414;2023-03-14T04:33:41;10.46;91.85
77100;SHT31;66602;48.922;2.414;2023-03-14T04:36:08;10.42;92.31
77100;SHT31;66602;48.922;2.414;2023-03-14T04:38:34;10.42;92.44
77100;SHT31;66602;48.922;2.414;2023-03-14T04:41:00;10.44;92.61
77100;SHT31;66602;48.922;2.414;2023-03-14T04:43:27;10.49;92.28
77100;SHT31;66602;48.922;2.414;2023-03-14T04:45:57;10.42;92.60
77100;SHT31;66602;48.922;2.414;2023-03-14T04:48:23;10.48;92.40
77100;SHT31;66602;48.922;2.414;2023-03-14T04:50:49;10.41;92.97
77100;SHT31;66602;48.922;2.414;2023-03-14T04:53:15;10.44;93.15
77100;SHT31;66602;48.922;2.414;2023-03-14T04:55:42;10.49;92.18
77100;SHT31;66602;48.922;2.414;2023-03-14T04:58:08;10.51;91.74
77100;SHT31;66602;48.922;2.414;2023-03-14T05:00:34;10.46;90.70
77100;SHT31;66602;48.922;2.414;2023-03-14T05:02:59;10.24;91.29
77100;SHT31;66602;48.922;2.414;2023-03-14T05:05:25;10.01;90.56
77100;SHT31;66602;48.922;2.414;2023-03-14T05:07:50;9.77;91.41
77100;SHT31;66602;48.922;2.414;2023-03-14T05:10:16;9.66;89.53
77100;SHT31;66602;48.922;2.414;2023-03-14T05:12:42;9.49;88.11
77100;SHT31;66602;48.922;2.414;2023-03-14T05:15:08;9.35;86.72
77100;SHT31;66602;48.922;2.414;2023-03-14T05:17:34;9.19;88.27
77100;SHT31;66602;48.922;2.414;2023-03-14T05:19:59;9.07;88.38
77100;SHT31;66602;48.922;2.414;2023-03-14T05:22:25;9.11;87.41
77100;SHT31;66602;48.922;2.414;2023-03-14T05:24:50;9.04;87.72
77100;SHT31;66602;48.922;2.414;2023-03-14T05:27:16;9.08;86.20
77100;SHT31;66602;48.922;2.414;2023-03-14T05:29:41;8.91;85.98
77100;SHT31;66602;48.922;2.414;2023-03-14T05:32:07;8.81;86.87
77100;SHT31;66602;48.922;2.414;2023-03-14T05:34:32;8.68;86.10
77100;SHT31;66602;48.922;2.414;2023-03-14T05:36:58;8.68;85.56
77100;SHT31;66602;48.922;2.414;2023-03-14T05:39:24;8.80;83.72
77100;SHT31;66602;48.922;2.414;2023-03-14T05:41:51;8.64;84.51
77100;SHT31;66602;48.922;2.414;2023-03-14T05:44:19;8.47;85.37
77100;SHT31;66602;48.922;2.414;2023-03-14T05:46:44;8.43;84.71
77100;SHT31;66602;48.922;2.414;2023-03-14T05:49:09;8.53;83.44
77100;SHT31;66602;48.922;2.414;2023-03-14T05:51:35;8.53;83.65
77100;SHT31;66602;48.922;2.414;2023-03-14T05:54:01;8.35;85.07
77100;SHT31;66602;48.922;2.414;2023-03-14T05:56:26;8.39;84.32
77100;SHT31;66602;48.922;2.414;2023-03-14T05:58:52;8.39;84.60
77100;SHT31;66602;48.922;2.414;2023-03-14T06:01:17;8.26;84.71
77100;SHT31;66602;48.922;2.414;2023-03-14T06:03:43;8.29;84.66
77100;SHT31;66602;48.922;2.414;2023-03-14T06:06:08;8.25;84.03
77100;SHT31;66602;48.922;2.414;2023-03-14T06:08:34;8.36;83.54
77100;SHT31;66602;48.922;2.414;2023-03-14T06:10:59;8.54;82.79
77100;SHT31;66602;48.922;2.414;2023-03-14T06:13:27;8.43;81.15
77100;SHT31;66602;48.922;2.414;2023-03-14T06:15:53;8.33;80.93
77100;SHT31;66602;48.922;2.414;2023-03-14T06:18:18;8.30;80.39
77100;SHT31;66602;48.922;2.414;2023-03-14T06:20:44;8.17;79.88
77100;SHT31;66602;48.922;2.414;2023-03-14T06:23:09;8.09;78.20
77100;SHT31;66602;48.922;2.414;2023-03-14T06:25:36;8.01;78.35
77100;SHT31;66602;48.922;2.414;2023-03-14T06:28:02;7.98;78.03
77100;SHT31;66602;48.922;2.414;2023-03-14T06:30:27;7.78;79.74
77100;SHT31;66602;48.922;2.414;2023-03-14T06:32:53;7.79;78.54
77100;SHT31;66602;48.922;2.414;2023-03-14T06:35:19;7.81;77.59
77100;SHT31;66602;48.922;2.414;2023-03-14T06:37:44;7.67;79.28
77100;SHT31;66602;48.922;2.414;2023-03-14T06:40:11;7.71;78.61
77100;SHT31;66602;48.922;2.414;2023-03-14T06:42:37;7.79;78.14
77100;SHT31;66602;48.922;2.414;2023-03-14T06:45:03;7.84;78.04
77100;SHT31;66602;48.922;2.414;2023-03-14T06:47:29;7.77;78.12
77100;SHT31;66602;48.922;2.414;2023-03-14T06:49:54;7.82;77.40
77100;SHT31;66602;48.922;2.414;2023-03-14T06:52:20;7.94;77.33
77100;SHT31;66602;48.922;2.414;2023-03-14T06:54:45;8.13;74.23
77100;SHT31;66602;48.922;2.414;2023-03-14T06:57:11;8.03;75.57
77100;SHT31;66602;48.922;2.414;2023-03-14T06:59:36;8.06;75.82
77100;SHT31;66602;48.922;2.414;2023-03-14T07:02:02;8.03;75.52
77100;SHT31;66602;48.922;2.414;2023-03-14T07:04:27;8.07;75.49
77100;SHT31;66602;48.922;2.414;2023-03-14T07:06:53;8.05;75.87
77100;SHT31;66602;48.922;2.414;2023-03-14T07:09:18;8.01;76.16
77100;SHT31;66602;48.922;2.414;2023-03-14T07:11:44;7.96;75.49
77100;SHT31;66602;48.922;2.414;2023-03-14T07:14:09;7.98;75.03
77100;SHT31;66602;48.922;2.414;2023-03-14T07:16:35;7.96;74.88
77100;SHT31;66602;48.922;2.414;2023-03-14T07:19:02;7.91;75.43
77100;SHT31;66602;48.922;2.414;2023-03-14T07:21:28;7.99;73.81
77100;SHT31;66602;48.922;2.414;2023-03-14T07:23:53;8.01;73.36
77100;SHT31;66602;48.922;2.414;2023-03-14T07:26:18;7.95;74.05
77100;SHT31;66602;48.922;2.414;2023-03-14T07:28:44;8.02;72.38
77100;SHT31;66602;48.922;2.414;2023-03-14T07:31:10;8.10;71.70
77100;SHT31;66602;48.922;2.414;2023-03-14T07:33:35;8.56;69.58
77100;SHT31;66602;48.922;2.414;2023-03-14T07:36:02;9.05;68.07
77100;SHT31;66602;48.922;2.414;2023-03-14T07:38:28;8.95;67.53
77100;SHT31;66602;48.922;2.414;2023-03-14T07:40:58;9.07;66.34
77100;SHT31;66602;48.922;2.414;2023-03-14T07:43:25;9.42;64.49
77100;SHT31;66602;48.922;2.414;2023-03-14T07:45:50;11.68;59.12
77100;SHT31;66602;48.922;2.414;2023-03-14T07:48:15;13.01;55.58
77100;SHT31;66602;48.922;2.414;2023-03-14T07:50:41;12.77;53.00
77100;SHT31;66602;48.922;2.414;2023-03-14T07:53:06;11.81;56.30
77100;SHT31;66602;48.922;2.414;2023-03-14T07:55:32;12.22;54.93
77100;SHT31;66602;48.922;2.414;2023-03-14T07:57:58;13.39;52.05
77100;SHT31;66602;48.922;2.414;2023-03-14T08:00:24;13.74;51.08
77100;SHT31;66602;48.922;2.414;2023-03-14T08:02:50;14.13;49.41
77100;SHT31;66602;48.922;2.414;2023-03-14T08:05:15;11.03;55.98
77100;SHT31;66602;48.922;2.414;2023-03-14T08:07:41;13.14;52.03
77100;SHT31;66602;48.922;2.414;2023-03-14T08:10:08;14.03;48.97
77100;SHT31;66602;48.922;2.414;2023-03-14T08:12:34;13.93;49.33
77100;SHT31;66602;48.922;2.414;2023-03-14T08:14:59;14.78;46.89
77100;SHT31;66602;48.922;2.414;2023-03-14T08:17:26;14.64;45.62
77100;SHT31;66602;48.922;2.414;2023-03-14T08:19:51;15.44;44.74
77100;SHT31;66602;48.922;2.414;2023-03-14T08:22:17;14.95;45.81
77100;SHT31;66602;48.922;2.414;2023-03-14T08:24:45;14.52;44.89
77100;SHT31;66602;48.922;2.414;2023-03-14T08:27:10;14.48;45.23
77100;SHT31;66602;48.922;2.414;2023-03-14T08:29:36;13.76;48.64
77100;SHT31;66602;48.922;2.414;2023-03-14T08:32:06;15.04;45.66
77100;SHT31;66602;48.922;2.414;2023-03-14T08:34:33;15.34;42.12
77100;SHT31;66602;48.922;2.414;2023-03-14T08:36:59;15.51;42.88
77100;SHT31;66602;48.922;2.414;2023-03-14T08:39:24;16.34;41.76
77100;SHT31;66602;48.922;2.414;2023-03-14T08:41:50;15.98;41.17
77100;SHT31;66602;48.922;2.414;2023-03-14T08:44:15;14.96;44.69
77100;SHT31;66602;48.922;2.414;2023-03-14T08:46:40;12.85;50.16
77100;SHT31;66602;48.922;2.414;2023-03-14T08:49:06;12.84;50.39
77100;SHT31;66602;48.922;2.414;2023-03-14T08:51:31;13.45;50.33
77100;SHT31;66602;48.922;2.414;2023-03-14T08:53:57;13.91;49.10
77100;SHT31;66602;48.922;2.414;2023-03-14T08:56:22;14.58;47.80
77100;SHT31;66602;48.922;2.414;2023-03-14T08:58:48;14.11;48.01
77100;SHT31;66602;48.922;2.414;2023-03-14T09:01:13;14.79;46.00
77100;SHT31;66602;48.922;2.414;2023-03-14T09:03:39;16.22;44.57
77100;SHT31;66602;48.922;2.414;2023-03-14T09:06:06;12.47;53.71
77100;SHT31;66602;48.922;2.414;2023-03-14T09:08:32;11.78;54.03
77100;SHT31;66602;48.922;2.414;2023-03-14T09:10:59;11.02;57.95
77100;SHT31;66602;48.922;2.414;2023-03-14T09:13:24;10.75;59.11
77100;SHT31;66602;48.922;2.414;2023-03-14T09:15:54;10.22;59.38
77100;SHT31;66602;48.922;2.414;2023-03-14T09:18:20;9.95;62.19
77100;SHT31;66602;48.922;2.414;2023-03-14T09:20:46;9.80;61.74
77100;SHT31;66602;48.922;2.414;2023-03-14T09:23:12;9.76;62.88
77100;SHT31;66602;48.922;2.414;2023-03-14T09:25:37;9.83;66.15
77100;SHT31;66602;48.922;2.414;2023-03-14T09:28:03;9.94;65.00
77100;SHT31;66602;48.922;2.414;2023-03-14T09:30:29;9.52;65.97
77100;SHT31;66602;48.922;2.414;2023-03-14T09:32:54;9.42;68.69
77100;SHT31;66602;48.922;2.414;2023-03-14T09:35:20;9.76;66.86
77100;SHT31;66602;48.922;2.414;2023-03-14T09:37:45;10.18;64.21
77100;SHT31;66602;48.922;2.414;2023-03-14T09:40:16;10.35;64.65
77100;SHT31;66602;48.922;2.414;2023-03-14T09:42:42;10.00;65.83
77100;SHT31;66602;48.922;2.414;2023-03-14T09:45:14;9.83;68.60
77100;SHT31;66602;48.922;2.414;2023-03-14T09:47:43;9.05;71.02
77100;SHT31;66602;48.922;2.414;2023-03-14T09:50:15;8.95;71.80
77100;SHT31;66602;48.922;2.414;2023-03-14T09:52:45;9.63;70.16
77100;SHT31;66602;48.922;2.414;2023-03-14T09:55:19;9.39;70.66
77100;SHT31;66602;48.922;2.414;2023-03-14T09:57:47;8.89;70.14
77100;SHT31;66602;48.922;2.414;2023-03-14T10:00:16;9.47;70.34
77100;SHT31;66602;48.922;2.414;2023-03-14T10:02:55;10.03;66.35
77100;SHT31;66602;48.922;2.414;2023-03-14T10:05:23;10.35;65.21
77100;SHT31;66602;48.922;2.414;2023-03-14T10:07:49;9.34;69.29
77100;SHT31;66602;48.922;2.414;2023-03-14T10:10:24;8.68;71.44
77100;SHT31;66602;48.922;2.414;2023-03-14T10:12:59;8.56;70.06
77100;SHT31;66602;48.922;2.414;2023-03-14T10:15:31;8.89;69.42
77100;SHT31;66602;48.922;2.414;2023-03-14T10:18:00;9.77;66.06
77100;SHT31;66602;48.922;2.414;2023-03-14T10:20:34;9.95;66.59
77100;SHT31;66602;48.922;2.414;2023-03-14T10:23:03;10.93;63.98
77100;SHT31;66602;48.922;2.414;2023-03-14T10:25:32;10.42;63.24
77100;SHT31;66602;48.922;2.414;2023-03-14T10:27:58;10.99;61.69
77100;SHT31;66602;48.922;2.414;2023-03-14T10:30:39;11.37;58.75
77100;SHT31;66602;48.922;2.414;2023-03-14T10:33:12;12.85;54.88
77100;SHT31;66602;48.922;2.414;2023-03-14T10:35:44;13.22;54.05
77100;SHT31;66602;48.922;2.414;2023-03-14T10:38:16;15.02;48.94
77100;SHT31;66602;48.922;2.414;2023-03-14T10:40:50;15.91;45.49
77100;SHT31;66602;48.922;2.414;2023-03-14T10:43:22;16.50;44.79
77100;SHT31;66602;48.922;2.414;2023-03-14T10:46:15;16.97;43.87
77100;SHT31;66602;48.922;2.414;2023-03-14T10:48:42;16.15;43.66
77100;SHT31;66602;48.922;2.414;2023-03-14T10:51:25;13.99;49.04
77100;SHT31;66602;48.922;2.414;2023-03-14T10:54:00;15.89;44.79
77100;SHT31;66602;48.922;2.414;2023-03-14T10:56:27;14.62;47.03
77100;SHT31;66602;48.922;2.414;2023-03-14T10:58:58;14.03;48.45
77100;SHT31;66602;48.922;2.414;2023-03-14T11:04:01;14.13;46.68
77100;SHT31;66602;48.922;2.414;2023-03-14T11:07:03;16.73;39.67
77100;SHT31;66602;48.922;2.414;2023-03-14T11:15:34;13.56;46.36
77100;SHT31;66602;48.922;2.414;2023-03-14T11:23:22;14.03;45.33
77100;SHT31;66602;48.922;2.414;2023-03-14T11:26:05;14.89;44.82
77100;SHT31;66602;48.922;2.414;2023-03-14T11:28:40;14.49;43.81
77100;SHT31;66602;48.922;2.414;2023-03-14T11:31:26;15.60;42.80
77100;SHT31;66602;48.922;2.414;2023-03-14T11:36:31;13.52;45.18
77100;SHT31;66602;48.922;2.414;2023-03-14T11:38:58;13.86;45.17
77100;SHT31;66602;48.922;2.414;2023-03-14T11:41:34;14.31;44.11
77100;SHT31;66602;48.922;2.414;2023-03-14T11:44:04;12.80;45.34
77100;SHT31;66602;48.922;2.414;2023-03-14T11:46:43;11.93;47.34
77100;SHT31;66602;48.922;2.414;2023-03-14T11:49:34;12.28;47.79
77100;SHT31;66602;48.922;2.414;2023-03-14T11:52:11;12.84;47.46
77100;SHT31;66602;48.922;2.414;2023-03-14T11:54:50;16.22;39.49
77100;SHT31;66602;48.922;2.414;2023-03-14T11:57:19;16.80;35.81
77100;SHT31;66602;48.922;2.414;2023-03-14T12:00:05;14.73;39.47
77100;SHT31;66602;48.922;2.414;2023-03-14T12:02:53;14.93;39.14
77100;SHT31;66602;48.922;2.414;2023-03-14T12:05:37;14.07;38.78
77100;SHT31;66602;48.922;2.414;2023-03-14T12:11:03;13.77;41.05
77100;SHT31;66602;48.922;2.414;2023-03-14T12:13:33;14.93;39.76
77100;SHT31;66602;48.922;2.414;2023-03-14T12:16:07;14.64;39.52
77100;SHT31;66602;48.922;2.414;2023-03-14T12:18:44;15.71;36.33
77100;SHT31;66602;48.922;2.414;2023-03-14T12:21:11;16.74;34.35
77100;SHT31;66602;48.922;2.414;2023-03-14T12:23:52;14.73;37.17
77100;SHT31;66602;48.922;2.414;2023-03-14T12:26:20;15.00;35.14
77100;SHT31;66602;48.922;2.414;2023-03-14T12:40:13;12.30;42.67
77100;SHT31;66602;48.922;2.414;2023-03-14T12:42:58;12.16;43.13
77100;SHT31;66602;48.922;2.414;2023-03-14T12:45:27;13.89;40.69
77100;SHT31;66602;48.922;2.414;2023-03-14T12:47:56;15.92;35.16
77100;SHT31;66602;48.922;2.414;2023-03-14T12:50:31;14.04;37.35
77100;SHT31;66602;48.922;2.414;2023-03-14T12:56:32;17.91;30.67
77100;SHT31;66602;48.922;2.414;2023-03-14T12:59:47;16.63;33.32
77100;SHT31;66602;48.922;2.414;2023-03-14T13:02:27;16.22;34.67
77100;SHT31;66602;48.922;2.414;2023-03-14T13:12:32;12.70;47.56
77100;SHT31;66602;48.922;2.414;2023-03-14T13:15:00;11.09;56.15
77100;SHT31;66602;48.922;2.414;2023-03-14T13:17:32;9.93;61.63
77100;SHT31;66602;48.922;2.414;2023-03-14T13:20:03;9.32;68.10
77100;SHT31;66602;48.922;2.414;2023-03-14T13:22:34;8.54;73.91
77100;SHT31;66602;48.922;2.414;2023-03-14T13:25:09;7.85;78.29
77100;SHT31;66602;48.922;2.414;2023-03-14T13:27:35;7.54;80.05
77100;SHT31;66602;48.922;2.414;2023-03-14T13:30:20;7.63;82.61
77100;SHT31;66602;48.922;2.414;2023-03-14T13:32:48;7.51;80.96
77100;SHT31;66602;48.922;2.414;2023-03-14T13:35:16;7.48;81.61
77100;SHT31;66602;48.922;2.414;2023-03-14T13:37:42;7.36;82.28
77100;SHT31;66602;48.922;2.414;2023-03-14T13:40:19;7.19;83.78
77100;SHT31;66602;48.922;2.414;2023-03-14T13:42:44;7.12;83.90
77100;SHT31;66602;48.922;2.414;2023-03-14T13:45:12;7.10;83.73
77100;SHT31;66602;48.922;2.414;2023-03-14T13:47:38;7.19;83.32
77100;SHT31;66602;48.922;2.414;2023-03-14T13:50:04;7.26;82.19
77100;SHT31;66602;48.922;2.414;2023-03-14T13:52:32;7.28;83.56
77100;SHT31;66602;48.922;2.414;2023-03-14T13:55:01;7.27;81.44
77100;SHT31;66602;48.922;2.414;2023-03-14T13:57:43;7.27;79.24
77100;SHT31;66602;48.922;2.414;2023-03-14T14:00:21;7.78;78.67
77100;SHT31;66602;48.922;2.414;2023-03-14T14:02:47;7.96;77.13
77100;SHT31;66602;48.922;2.414;2023-03-14T14:05:14;8.02;74.66
77100;SHT31;66602;48.922;2.414;2023-03-14T14:07:40;8.15;75.14
77100;SHT31;66602;48.922;2.414;2023-03-14T14:10:11;8.03;72.48
77100;SHT31;66602;48.922;2.414;2023-03-14T14:12:45;8.35;74.85
77100;SHT31;66602;48.922;2.414;2023-03-14T14:15:20;8.70;73.76
77100;SHT31;66602;48.922;2.414;2023-03-14T14:17:55;8.89;71.65
77100;SHT31;66602;48.922;2.414;2023-03-14T14:20:29;8.85;70.12
77100;SHT31;66602;48.922;2.414;2023-03-14T14:22:58;10.24;67.39
77100;SHT31;66602;48.922;2.414;2023-03-14T14:25:25;10.45;66.58
77100;SHT31;66602;48.922;2.414;2023-03-14T14:27:51;10.35;66.69
77100;SHT31;66602;48.922;2.414;2023-03-14T14:32:49;10.49;66.27
77100;SHT31;66602;48.922;2.414;2023-03-14T14:35:33;9.83;68.77
77100;SHT31;66602;48.922;2.414;2023-03-14T14:37:59;9.82;70.75
77100;SHT31;66602;48.922;2.414;2023-03-14T14:40:30;9.42;72.09
77100;SHT31;66602;48.922;2.414;2023-03-14T14:43:03;9.00;71.07
77100;SHT31;66602;48.922;2.414;2023-03-14T14:45:29;8.57;71.05
77100;SHT31;66602;48.922;2.414;2023-03-14T14:48:06;8.28;71.65
77100;SHT31;66602;48.922;2.414;2023-03-14T14:50:38;8.19;74.16
77100;SHT31;66602;48.922;2.414;2023-03-14T14:55:58;8.21;73.40
77100;SHT31;66602;48.922;2.414;2023-03-14T14:58:29;9.07;70.75
77100;SHT31;66602;48.922;2.414;2023-03-14T15:03:42;8.33;71.01
77100;SHT31;66602;48.922;2.414;2023-03-14T15:06:09;8.15;70.56
77100;SHT31;66602;48.922;2.414;2023-03-14T15:08:37;9.03;70.10
77100;SHT31;66602;48.922;2.414;2023-03-14T15:11:02;8.94;70.00
77100;SHT31;66602;48.922;2.414;2023-03-14T15:13:28;8.84;70.39
77100;SHT31;66602;48.922;2.414;2023-03-14T15:15:53;9.16;68.44
77100;SHT31;66602;48.922;2.414;2023-03-14T15:18:22;10.22;66.21
77100;SHT31;66602;48.922;2.414;2023-03-14T15:20:48;10.07;64.56
77100;SHT31;66602;48.922;2.414;2023-03-14T15:23:17;10.35;65.02
77100;SHT31;66602;48.922;2.414;2023-03-14T15:25:43;10.68;64.60
77100;SHT31;66602;48.922;2.414;2023-03-14T15:28:17;10.37;62.90
77100;SHT31;66602;48.922;2.414;2023-03-14T15:30:45;10.04;65.00
77100;SHT31;66602;48.922;2.414;2023-03-14T15:33:10;10.55;65.53
77100;SHT31;66602;48.922;2.414;2023-03-14T15:35:37;10.62;62.52
77100;SHT31;66602;48.922;2.414;2023-03-14T15:38:03;10.13;64.74
77100;SHT31;66602;48.922;2.414;2023-03-14T15:40:28;9.89;65.55
77100;SHT31;66602;48.922;2.414;2023-03-14T15:42:54;9.69;66.00
77100;SHT31;66602;48.922;2.414;2023-03-14T15:45:20;9.45;67.11
77100;SHT31;66602;48.922;2.414;2023-03-14T15:47:45;9.31;67.21
77100;SHT31;66602;48.922;2.414;2023-03-14T15:50:11;9.28;66.07
77100;SHT31;66602;48.922;2.414;2023-03-14T15:52:37;9.46;66.38
77100;SHT31;66602;48.922;2.414;2023-03-14T15:55:02;9.82;66.07
77100;SHT31;66602;48.922;2.414;2023-03-14T15:57:28;9.80;65.16
77100;SHT31;66602;48.922;2.414;2023-03-14T15:59:53;9.69;64.69
77100;SHT31;66602;48.922;2.414;2023-03-14T16:02:19;9.59;65.81
77100;SHT31;66602;48.922;2.414;2023-03-14T16:04:45;9.76;64.81
77100;SHT31;66602;48.922;2.414;2023-03-14T16:07:10;10.10;64.01
77100;SHT31;66602;48.922;2.414;2023-03-14T16:09:36;9.84;63.94
77100;SHT31;66602;48.922;2.414;2023-03-14T16:12:01;9.53;63.24
77100;SHT31;66602;48.922;2.414;2023-03-14T16:14:29;9.46;63.57
77100;SHT31;66602;48.922;2.414;2023-03-14T16:16:55;9.45;63.98
77100;SHT31;66602;48.922;2.414;2023-03-14T16:19:24;9.46;64.68
77100;SHT31;66602;48.922;2.414;2023-03-14T16:21:55;9.53;64.36
77100;SHT31;66602;48.922;2.414;2023-03-14T16:24:21;9.04;66.94
77100;SHT31;66602;48.922;2.414;2023-03-14T16:26:47;8.39;73.31
77100;SHT31;66602;48.922;2.414;2023-03-14T16:29:13;7.88;75.91
77100;SHT31;66602;48.922;2.414;2023-03-14T16:31:38;7.57;76.77
77100;SHT31;66602;48.922;2.414;2023-03-14T16:34:09;7.37;79.06
77100;SHT31;66602;48.922;2.414;2023-03-14T16:36:35;7.26;79.37
77100;SHT31;66602;48.922;2.414;2023-03-14T16:39:01;7.34;77.65
77100;SHT31;66602;48.922;2.414;2023-03-14T16:41:26;7.61;76.54